createdAt,value
2018-04-22T00:01:16.570Z,2.47
2018-04-22T00:03:20.283Z,2.10
2018-04-22T00:05:23.850Z,2.20
2018-04-22T00:07:27.403Z,2.10
2018-04-22T00:09:31.760Z,1.90
2018-04-22T00:11:35.423Z,2.23
2018-04-22T00:13:39.032Z,3.10
2018-04-22T00:15:42.599Z,2.33
2018-04-22T00:17:46.157Z,2.30
2018-04-22T00:19:49.887Z,2.50
2018-04-22T00:21:54.191Z,1.80
2018-04-22T00:23:57.772Z,2.00
2018-04-22T00:26:01.369Z,3.30
2018-04-22T00:28:05.020Z,2.50
2018-04-22T00:30:09.343Z,2.40
2018-04-22T00:32:12.952Z,2.83
2018-04-22T00:34:16.595Z,2.57
2018-04-22T00:36:20.167Z,2.60
2018-04-22T00:38:23.732Z,2.40
2018-04-22T00:40:27.323Z,2.43
2018-04-22T00:42:31.381Z,2.47
2018-04-22T00:44:35.746Z,2.50
2018-04-22T00:46:39.335Z,2.70
2018-04-22T00:48:43.698Z,2.20
2018-04-22T00:50:47.328Z,2.40
2018-04-22T00:52:51.715Z,2.10
2018-04-22T00:54:55.227Z,2.50
2018-04-22T00:56:58.791Z,2.50
2018-04-22T00:59:02.480Z,2.30
2018-04-22T01:01:06.027Z,2.10
2018-04-22T01:03:10.384Z,2.50
2018-04-22T01:05:13.982Z,2.77
2018-04-22T01:07:17.553Z,2.80
2018-04-22T01:09:21.132Z,2.93
2018-04-22T01:11:24.775Z,2.60
2018-04-22T01:13:28.432Z,2.60
2018-04-22T01:15:32.059Z,2.60
2018-04-22T01:17:35.636Z,2.30
2018-04-22T01:19:40.077Z,2.80
2018-04-22T01:21:43.694Z,2.60
2018-04-22T01:23:47.226Z,2.97
2018-04-22T01:25:50.844Z,3.30
2018-04-22T01:27:55.182Z,2.70
2018-04-22T01:29:58.790Z,3.20
2018-04-22T01:32:02.376Z,2.20
2018-04-22T01:34:05.920Z,2.80
2018-04-22T01:36:10.289Z,2.70
2018-04-22T01:38:13.970Z,3.37
2018-04-22T01:40:18.304Z,3.40
2018-04-22T01:42:21.876Z,2.90
2018-04-22T01:44:25.496Z,3.53
2018-04-22T01:46:36.223Z,2.97
2018-04-22T01:48:41.591Z,2.63
2018-04-22T01:50:45.143Z,2.77
2018-04-22T01:52:48.783Z,3.00
2018-04-22T01:54:52.355Z,3.37
2018-04-22T01:56:56.732Z,3.17
2018-04-22T01:59:00.368Z,2.67
2018-04-22T02:01:04.692Z,3.33
2018-04-22T02:03:08.281Z,3.53
2018-04-22T02:05:11.886Z,3.37
2018-04-22T02:07:16.188Z,3.90
2018-04-22T02:09:20.529Z,3.33
2018-04-22T02:11:24.146Z,3.13
2018-04-22T02:13:27.743Z,3.03
2018-04-22T02:15:31.339Z,3.80
2018-04-22T02:17:34.987Z,3.53
2018-04-22T02:19:38.571Z,3.67
2018-04-22T02:21:42.151Z,3.40
2018-04-22T02:23:45.783Z,2.20
2018-04-22T02:25:49.337Z,2.93
2018-04-22T02:27:52.985Z,2.93
2018-04-22T02:29:56.566Z,3.60
2018-04-22T02:32:00.136Z,3.30
2018-04-22T02:34:03.801Z,3.33
2018-04-22T02:36:07.404Z,3.10
2018-04-22T02:38:11.018Z,3.00
2018-04-22T02:40:14.613Z,3.40
2018-04-22T02:42:18.523Z,3.40
2018-04-22T02:44:22.067Z,3.43
2018-04-22T02:46:25.626Z,3.53
2018-04-22T02:48:29.679Z,3.20
2018-04-22T02:50:33.271Z,3.60
2018-04-22T02:52:36.849Z,2.80
2018-04-22T02:54:41.233Z,3.23
2018-04-22T02:56:44.779Z,3.10
2018-04-22T02:58:48.294Z,3.30
2018-04-22T03:00:51.883Z,3.10
2018-04-22T03:02:55.472Z,3.50
2018-04-22T03:04:59.038Z,3.10
2018-04-22T03:07:03.417Z,3.10
2018-04-22T03:09:06.960Z,2.87
2018-04-22T03:11:10.514Z,3.47
2018-04-22T03:13:14.076Z,3.40
2018-04-22T03:15:17.628Z,3.63
2018-04-22T03:17:21.297Z,3.17
2018-04-22T03:19:24.863Z,3.70
2018-04-22T03:21:28.510Z,3.07
2018-04-22T03:23:32.860Z,3.33
2018-04-22T03:25:36.416Z,3.10
2018-04-22T03:27:40.043Z,3.60
2018-04-22T03:29:43.623Z,3.50
2018-04-22T03:31:47.967Z,3.10
2018-04-22T03:33:51.509Z,3.50
2018-04-22T03:35:55.293Z,3.90
2018-04-22T03:37:58.819Z,3.00
2018-04-22T03:40:02.392Z,2.97
2018-04-22T03:42:05.978Z,2.77
2018-04-22T03:44:09.548Z,3.10
2018-04-22T03:46:13.947Z,3.47
2018-04-22T03:48:17.555Z,3.30
2018-04-22T03:50:21.898Z,3.30
2018-04-22T03:52:25.522Z,3.30
2018-04-22T03:54:29.242Z,2.80
2018-04-22T03:56:32.855Z,3.40
2018-04-22T03:58:37.228Z,3.40
2018-04-22T04:00:40.821Z,3.10
2018-04-22T04:02:44.352Z,3.23
2018-04-22T04:04:47.876Z,2.83
2018-04-22T04:06:51.955Z,3.17
2018-04-22T04:08:55.498Z,3.00
2018-04-22T04:11:01.915Z,3.27
2018-04-22T04:13:09.369Z,3.73
2018-04-22T04:15:13.647Z,3.10
2018-04-22T04:17:17.223Z,3.67
2018-04-22T04:19:32.450Z,3.63
2018-04-22T04:21:48.611Z,2.90
2018-04-22T04:26:50.734Z,3.87
2018-04-22T04:28:58.006Z,2.83
2018-04-22T04:31:01.496Z,3.30
2018-04-22T04:33:05.010Z,3.57
2018-04-22T04:35:08.506Z,2.80
2018-04-22T04:37:12.004Z,3.37
2018-04-22T04:39:15.471Z,2.90
2018-04-22T04:41:19.074Z,3.20
2018-04-22T04:43:22.568Z,2.77
2018-04-22T04:45:29.065Z,2.67
2018-04-22T04:47:32.985Z,2.80
2018-04-22T04:49:36.554Z,2.43
2018-04-22T04:51:41.029Z,3.10
2018-04-22T04:53:46.255Z,3.10
2018-04-22T04:55:50.211Z,2.97
2018-04-22T04:57:54.283Z,3.47
2018-04-22T04:59:59.232Z,3.20
2018-04-22T05:02:04.935Z,2.80
2018-04-22T05:04:11.428Z,2.73
2018-04-22T05:06:17.903Z,2.70
2018-04-22T05:08:21.448Z,2.50
2018-04-22T05:10:25.104Z,3.07
2018-04-22T05:12:28.682Z,2.60
2018-04-22T05:14:32.262Z,3.40
2018-04-22T05:16:36.257Z,2.70
2018-04-22T05:18:39.832Z,2.90
2018-04-22T05:20:43.541Z,3.00
2018-04-22T05:22:47.067Z,2.70
2018-04-22T05:24:50.574Z,2.10
2018-04-22T05:26:54.203Z,3.00
2018-04-22T05:28:57.751Z,3.50
2018-04-22T05:31:01.415Z,2.87
2018-04-22T05:33:05.682Z,3.17
2018-04-22T05:35:09.240Z,2.90
2018-04-22T05:37:12.837Z,2.83
2018-04-22T05:39:16.430Z,3.10
2018-04-22T05:41:20.039Z,3.10
2018-04-22T05:43:23.574Z,2.67
2018-04-22T05:45:27.130Z,3.10
2018-04-22T05:47:30.756Z,2.53
2018-04-22T05:49:35.088Z,2.40
2018-04-22T05:51:38.686Z,3.13
2018-04-22T05:53:42.204Z,2.90
2018-04-22T05:55:45.839Z,2.67
2018-04-22T05:57:49.375Z,2.67
2018-04-22T05:59:52.905Z,2.97
2018-04-22T06:01:57.309Z,3.20
2018-04-22T06:04:00.902Z,2.80
2018-04-22T06:06:04.545Z,3.00
2018-04-22T06:08:08.206Z,3.20
2018-04-22T06:10:12.574Z,3.50
2018-04-22T06:12:16.131Z,2.67
2018-04-22T06:14:19.714Z,2.63
2018-04-22T06:16:24.094Z,2.10
2018-04-22T06:18:27.699Z,3.03
2018-04-22T06:20:31.322Z,3.40
2018-04-22T06:22:34.863Z,3.13
2018-04-22T06:24:38.483Z,2.83
2018-04-22T06:26:42.010Z,2.30
2018-04-22T06:28:45.578Z,2.93
2018-04-22T06:30:49.132Z,2.40
2018-04-22T06:32:52.672Z,2.73
2018-04-22T06:34:56.375Z,4.40
2018-04-22T06:36:59.955Z,3.30
2018-04-22T06:39:03.572Z,3.07
2018-04-22T06:41:07.109Z,2.37
2018-04-22T06:43:11.450Z,3.17
2018-04-22T06:45:15.010Z,2.90
2018-04-22T06:47:18.644Z,2.87
2018-04-22T06:49:22.923Z,3.07
2018-04-22T06:51:26.504Z,4.03
2018-04-22T06:53:30.118Z,2.57
2018-04-22T06:55:33.678Z,2.80
2018-04-22T06:57:37.287Z,2.57
2018-04-22T06:59:41.583Z,2.73
2018-04-22T07:01:45.174Z,2.97
2018-04-22T07:03:48.728Z,2.33
2018-04-22T07:05:52.785Z,2.50
2018-04-22T07:07:57.184Z,3.40
2018-04-22T07:10:00.733Z,3.27
2018-04-22T07:12:04.385Z,2.43
2018-04-22T07:14:07.987Z,3.47
2018-04-22T07:16:11.546Z,3.00
2018-04-22T07:18:15.633Z,2.87
2018-04-22T07:20:19.229Z,3.17
2018-04-22T07:22:22.871Z,3.23
2018-04-22T07:24:26.579Z,3.30
2018-04-22T07:26:30.182Z,2.70
2018-04-22T07:28:34.565Z,2.90
2018-04-22T07:30:38.147Z,2.77
2018-04-22T07:32:43.089Z,3.37
2018-04-22T07:34:47.976Z,3.03
2018-04-22T07:36:52.625Z,3.20
2018-04-22T07:38:56.171Z,3.20
2018-04-22T07:41:00.588Z,2.87
2018-04-22T07:43:04.918Z,2.07
2018-04-22T07:45:09.226Z,3.63
2018-04-22T07:47:13.950Z,3.13
2018-04-22T07:49:17.508Z,3.10
2018-04-22T07:51:21.601Z,2.10
2018-04-22T07:53:25.193Z,3.30
2018-04-22T07:55:28.732Z,2.53
2018-04-22T07:57:33.174Z,3.00
2018-04-22T07:59:37.320Z,4.00
2018-04-22T08:01:40.902Z,2.70
2018-04-22T08:03:47.769Z,2.70
2018-04-22T08:05:51.532Z,3.00
2018-04-22T08:07:55.864Z,2.93
2018-04-22T08:09:59.657Z,3.07
2018-04-22T08:12:03.983Z,3.73
2018-04-22T08:14:07.502Z,2.90
2018-04-22T08:16:11.099Z,3.23
2018-04-22T08:18:14.639Z,4.30
2018-04-22T08:20:18.227Z,2.30
2018-04-22T08:22:21.797Z,3.40
2018-04-22T08:24:25.349Z,3.20
2018-04-22T08:26:29.736Z,3.73
2018-04-22T08:28:33.310Z,4.13
2018-04-22T08:30:36.857Z,3.50
2018-04-22T08:32:40.585Z,3.57
2018-04-22T08:34:44.370Z,4.00
2018-04-22T08:36:49.854Z,4.43
2018-04-22T08:38:53.615Z,3.47
2018-04-22T08:40:57.191Z,3.40
2018-04-22T08:43:01.515Z,4.37
2018-04-22T08:45:05.623Z,3.37
2018-04-22T08:47:09.141Z,4.80
2018-04-22T08:49:12.674Z,2.93
2018-04-22T08:51:16.332Z,3.40
2018-04-22T08:53:19.906Z,4.53
2018-04-22T08:55:24.230Z,3.30
2018-04-22T08:57:28.226Z,2.50
2018-04-22T08:59:32.562Z,2.63
2018-04-22T09:01:36.232Z,2.00
2018-04-22T09:03:40.549Z,2.87
2018-04-22T09:05:44.126Z,4.40
2018-04-22T09:07:48.490Z,4.13
2018-04-22T09:09:52.079Z,3.13
2018-04-22T09:11:55.728Z,4.27
2018-04-22T09:13:59.317Z,3.87
2018-04-22T09:16:02.876Z,4.13
2018-04-22T09:18:06.474Z,4.53
2018-04-22T09:20:10.058Z,4.23
2018-04-22T09:22:13.715Z,3.93
2018-04-22T09:24:17.263Z,4.50
2018-04-22T09:26:20.869Z,4.20
2018-04-22T09:28:24.459Z,4.63
2018-04-22T09:30:28.195Z,3.00
2018-04-22T09:32:31.730Z,4.37
2018-04-22T09:34:35.628Z,4.30
2018-04-22T09:36:39.940Z,4.10
2018-04-22T09:38:44.332Z,3.10
2018-04-22T09:40:47.945Z,3.23
2018-04-22T09:42:54.481Z,3.43
2018-04-22T09:44:58.741Z,3.60
2018-04-22T09:47:02.338Z,3.67
2018-04-22T09:49:05.945Z,3.00
2018-04-22T09:51:09.563Z,3.07
2018-04-22T09:53:14.361Z,3.60
2018-04-22T09:55:17.994Z,3.00
2018-04-22T09:57:21.580Z,4.00
2018-04-22T09:59:27.921Z,3.20
2018-04-22T10:01:36.979Z,3.37
2018-04-22T10:03:40.580Z,3.43
2018-04-22T10:05:50.422Z,3.73
2018-04-22T10:07:53.995Z,3.53
2018-04-22T10:09:58.890Z,3.10
2018-04-22T10:12:03.248Z,2.93
2018-04-22T10:14:06.860Z,3.77
2018-04-22T10:16:10.544Z,2.43
2018-04-22T10:18:15.123Z,3.33
2018-04-22T10:20:19.523Z,3.07
2018-04-22T10:22:23.820Z,3.67
2018-04-22T10:24:29.051Z,3.70
2018-04-22T10:26:32.630Z,3.27
2018-04-22T10:28:36.198Z,3.20
2018-04-22T10:30:42.266Z,2.77
2018-04-22T10:32:46.456Z,3.53
2018-04-22T10:34:50.574Z,3.70
2018-04-22T10:36:54.223Z,3.43
2018-04-22T10:38:57.863Z,4.00
2018-04-22T10:41:03.574Z,2.37
2018-04-22T10:43:07.145Z,3.60
2018-04-22T10:45:10.681Z,4.37
2018-04-22T10:47:14.249Z,3.47
2018-04-22T10:49:17.761Z,3.00
2018-04-22T10:51:21.751Z,3.37
2018-04-22T10:53:25.351Z,3.70
2018-04-22T10:55:28.877Z,3.50
2018-04-22T10:57:34.435Z,3.93
2018-04-22T10:59:38.067Z,4.57
2018-04-22T11:01:41.607Z,3.17
2018-04-22T11:03:46.399Z,3.30
2018-04-22T11:05:50.301Z,3.50
2018-04-22T11:07:55.286Z,2.87
2018-04-22T11:09:58.872Z,3.83
2018-04-22T11:12:02.471Z,4.33
2018-04-22T11:14:08.377Z,3.00
2018-04-22T11:16:12.123Z,4.40
2018-04-22T11:18:15.622Z,3.50
2018-04-22T11:20:19.237Z,4.07
2018-04-22T11:22:23.193Z,3.07
2018-04-22T11:24:26.832Z,4.57
2018-04-22T11:26:30.411Z,3.73
2018-04-22T11:28:33.999Z,3.83
2018-04-22T11:30:37.563Z,3.33
2018-04-22T11:32:41.208Z,4.47
2018-04-22T11:34:45.162Z,5.37
2018-04-22T11:36:48.679Z,4.03
2018-04-22T11:38:53.049Z,3.27
2018-04-22T11:40:56.975Z,2.70
2018-04-22T11:43:00.531Z,4.97
2018-04-22T11:45:04.174Z,4.47
2018-04-22T11:47:07.750Z,5.83
2018-04-22T11:49:11.291Z,5.13
2018-04-22T11:51:15.642Z,4.47
2018-04-22T11:53:19.311Z,5.03
2018-04-22T11:55:23.608Z,4.87
2018-04-22T11:57:27.972Z,5.03
2018-04-22T11:59:31.947Z,6.07
2018-04-22T12:01:36.337Z,5.87
2018-04-22T12:03:39.872Z,4.67
2018-04-22T12:05:43.422Z,6.60
2018-04-22T12:07:46.976Z,6.97
2018-04-22T12:09:50.569Z,7.03
2018-04-22T12:11:54.158Z,6.37
2018-04-22T12:13:58.571Z,7.13
2018-04-22T12:16:02.946Z,3.53
2018-04-22T12:18:06.478Z,3.53
2018-04-22T12:20:10.561Z,5.57
2018-04-22T12:22:14.885Z,7.30
2018-04-22T12:24:18.398Z,8.67
2018-04-22T12:26:22.804Z,8.30
2018-04-22T12:28:26.364Z,4.37
2018-04-22T12:30:30.019Z,4.33
2018-04-22T12:32:33.581Z,6.50
2018-04-22T12:34:37.933Z,4.43
2018-04-22T12:36:41.498Z,6.20
2018-04-22T12:38:45.057Z,6.60
2018-04-22T12:40:48.639Z,3.80
2018-04-22T12:42:52.166Z,6.20
2018-04-22T12:44:56.511Z,7.27
2018-04-22T12:47:00.115Z,5.50
2018-04-22T12:49:03.683Z,5.47
2018-04-22T12:51:07.713Z,4.93
2018-04-22T12:53:11.289Z,4.70
2018-04-22T12:55:15.689Z,5.10
2018-04-22T12:57:19.293Z,4.47
2018-04-22T12:59:22.848Z,7.03
2018-04-22T13:01:27.257Z,5.70
2018-04-22T13:03:31.654Z,5.20
2018-04-22T13:05:35.215Z,6.30
2018-04-22T13:07:39.553Z,5.07
2018-04-22T13:09:43.127Z,6.33
2018-04-22T13:11:47.490Z,11.23
2018-04-22T13:13:51.217Z,4.83
2018-04-22T13:15:54.736Z,6.87
2018-04-22T13:17:58.366Z,5.23
2018-04-22T13:20:01.992Z,8.20
2018-04-22T13:22:06.376Z,11.70
2018-04-22T13:24:09.979Z,5.80
2018-04-22T13:26:13.523Z,6.50
2018-04-22T13:28:17.138Z,8.80
2018-04-22T13:30:21.936Z,5.67
2018-04-22T13:32:25.555Z,5.80
2018-04-22T13:34:29.182Z,5.87
2018-04-22T13:36:32.852Z,5.53
2018-04-22T13:38:36.469Z,6.83
2018-04-22T13:40:40.751Z,5.33
2018-04-22T13:42:44.438Z,5.73
2018-04-22T13:44:47.994Z,7.70
2018-04-22T13:46:52.365Z,7.33
2018-04-22T13:49:04.412Z,5.63
2018-04-22T13:51:16.531Z,6.10
2018-04-22T13:53:27.999Z,5.77
2018-04-22T13:55:32.542Z,6.20
2018-04-22T13:57:41.528Z,8.13
2018-04-22T13:59:45.117Z,7.20
2018-04-22T14:01:48.791Z,6.10
2018-04-22T14:03:53.203Z,6.20
2018-04-22T14:05:56.716Z,5.60
2018-04-22T14:08:00.384Z,7.03
2018-04-22T14:10:05.296Z,7.27
2018-04-22T14:12:08.842Z,9.97
2018-04-22T14:14:12.441Z,7.17
2018-04-22T14:16:16.118Z,7.17
2018-04-22T14:18:20.388Z,9.50
2018-04-22T14:20:23.948Z,7.60
2018-04-22T14:22:27.535Z,8.10
2018-04-22T14:24:31.154Z,7.00
2018-04-22T14:26:34.692Z,6.47
2018-04-22T14:28:38.373Z,8.20
2018-04-22T14:30:41.929Z,6.90
2018-04-22T14:32:45.533Z,8.03
2018-04-22T14:34:49.109Z,6.90
2018-04-22T14:36:52.689Z,9.00
2018-04-22T14:38:57.027Z,7.23
2018-04-22T14:41:00.615Z,9.10
2018-04-22T14:43:04.371Z,6.17
2018-04-22T14:45:19.707Z,7.50
2018-04-22T14:47:24.057Z,7.50
2018-04-22T14:49:27.566Z,6.00
2018-04-22T14:51:31.118Z,8.93
2018-04-22T14:53:35.060Z,8.37
2018-04-22T14:55:38.613Z,7.60
2018-04-22T14:57:42.201Z,7.03
2018-04-22T14:59:45.780Z,6.30
2018-04-22T15:01:50.098Z,7.73
2018-04-22T15:03:54.099Z,4.63
2018-04-22T15:05:58.405Z,5.50
2018-04-22T15:08:02.763Z,5.03
2018-04-22T15:10:06.520Z,7.87
2018-04-22T15:12:10.903Z,6.03
2018-04-22T15:14:14.500Z,4.83
2018-04-22T15:16:18.165Z,5.40
2018-04-22T15:18:21.771Z,5.50
2018-04-22T15:20:25.367Z,5.13
2018-04-22T15:22:28.980Z,6.77
2018-04-22T15:24:32.533Z,5.40
2018-04-22T15:26:36.843Z,5.30
2018-04-22T15:28:41.185Z,5.03
2018-04-22T15:30:44.779Z,5.57
2018-04-22T15:32:48.510Z,6.10
2018-04-22T15:34:52.774Z,5.70
2018-04-22T15:36:57.090Z,5.60
2018-04-22T15:39:00.671Z,4.80
2018-04-22T15:41:04.315Z,5.10
2018-04-22T15:43:07.888Z,4.70
2018-04-22T15:45:11.575Z,4.97
2018-04-22T15:47:15.159Z,4.93
2018-04-22T15:49:19.458Z,4.57
2018-04-22T15:51:23.125Z,4.87
2018-04-22T15:53:26.690Z,4.17
2018-04-22T15:55:30.384Z,4.40
2018-04-22T15:57:34.820Z,4.23
2018-04-22T15:59:38.369Z,4.60
2018-04-22T16:01:41.896Z,5.17
2018-04-22T16:03:45.498Z,4.23
2018-04-22T16:05:49.146Z,4.33
2018-04-22T16:07:53.529Z,4.60
2018-04-22T16:09:57.098Z,4.50
2018-04-22T16:12:00.743Z,4.20
2018-04-22T16:14:04.302Z,4.20
2018-04-22T16:16:07.855Z,4.60
2018-04-22T16:18:11.454Z,4.20
2018-04-22T16:20:15.059Z,6.03
2018-04-22T16:22:19.404Z,5.27
2018-04-22T16:24:22.975Z,4.30
2018-04-22T16:26:27.015Z,4.27
2018-04-22T16:28:30.569Z,4.13
2018-04-22T16:30:34.920Z,4.83
2018-04-22T16:32:38.682Z,5.37
2018-04-22T16:34:42.224Z,5.30
2018-04-22T16:36:46.694Z,5.50
2018-04-22T16:38:50.325Z,6.03
2018-04-22T16:40:53.863Z,5.53
2018-04-22T16:42:57.433Z,6.10
2018-04-22T16:45:00.968Z,5.03
2018-04-22T16:47:05.458Z,5.40
2018-04-22T16:49:08.966Z,4.23
2018-04-22T16:51:12.527Z,5.63
2018-04-22T16:53:16.206Z,4.80
2018-04-22T16:55:19.812Z,5.23
2018-04-22T16:57:23.381Z,5.27
2018-04-22T16:59:26.973Z,4.53
2018-04-22T17:01:31.322Z,4.40
2018-04-22T17:03:34.930Z,5.13
2018-04-22T17:05:38.542Z,5.67
2018-04-22T17:07:42.054Z,5.73
2018-04-22T17:09:45.715Z,4.80
2018-04-22T17:11:49.305Z,5.17
2018-04-22T17:13:52.816Z,3.93
2018-04-22T17:15:56.486Z,4.50
2018-04-22T17:18:00.103Z,5.27
2018-04-22T17:20:03.711Z,4.90
2018-04-22T17:22:08.195Z,4.97
2018-04-22T17:24:11.858Z,5.50
2018-04-22T17:26:15.455Z,5.03
2018-04-22T17:28:19.106Z,5.33
2018-04-22T17:30:22.664Z,5.03
2018-04-22T17:32:26.186Z,5.10
2018-04-22T17:34:29.843Z,4.90
2018-04-22T17:36:33.933Z,5.63
2018-04-22T17:38:38.062Z,6.10
2018-04-22T17:40:42.482Z,5.27
2018-04-22T17:42:46.015Z,6.83
2018-04-22T17:44:51.504Z,6.90
2018-04-22T17:46:55.080Z,7.00
2018-04-22T17:48:58.648Z,7.17
2018-04-22T17:51:03.159Z,7.13
2018-04-22T17:53:08.152Z,5.57
2018-04-22T17:55:13.423Z,4.37
2018-04-22T17:57:19.547Z,6.60
2018-04-22T17:59:27.065Z,5.73
2018-04-22T18:01:33.286Z,4.80
2018-04-22T18:03:37.928Z,4.07
2018-04-22T18:05:42.322Z,4.47
2018-04-22T18:07:46.384Z,4.67
2018-04-22T18:09:49.952Z,6.43
2018-04-22T18:11:53.510Z,6.87
2018-04-22T18:13:57.082Z,7.43
2018-04-22T18:16:00.667Z,9.93
2018-04-22T18:18:04.219Z,7.40
2018-04-22T18:20:07.823Z,6.70
2018-04-22T18:22:11.533Z,6.33
2018-04-22T18:24:16.503Z,9.47
2018-04-22T18:26:20.040Z,9.80
2018-04-22T18:28:23.583Z,8.77
2018-04-22T18:30:28.006Z,10.93
2018-04-22T18:32:31.616Z,7.80
2018-04-22T18:34:35.520Z,9.47
2018-04-22T18:36:39.089Z,8.37
2018-04-22T18:38:43.423Z,7.97
2018-04-22T18:40:47.684Z,11.13
2018-04-22T18:42:52.519Z,9.87
2018-04-22T18:44:57.522Z,10.33
2018-04-22T18:47:04.293Z,7.90
2018-04-22T18:49:08.810Z,7.53
2018-04-22T18:51:12.423Z,11.37
2018-04-22T18:53:16.877Z,31.17
2018-04-22T18:55:20.532Z,7.77
2018-04-22T18:57:24.129Z,9.17
2018-04-22T18:59:27.677Z,9.73
2018-04-22T19:01:31.248Z,26.63
2018-04-22T19:03:35.596Z,9.73
2018-04-22T19:05:39.223Z,10.33
2018-04-22T19:07:42.770Z,20.90
2018-04-22T19:09:46.374Z,14.30
2018-04-22T19:11:49.967Z,9.67
2018-04-22T19:13:53.532Z,10.80
2018-04-22T19:15:57.879Z,12.00
2018-04-22T19:18:01.524Z,13.93
2018-04-22T19:20:06.629Z,15.75
2018-04-22T19:22:10.190Z,10.67
2018-04-22T19:24:14.462Z,12.37
2018-04-22T19:26:18.011Z,11.37
2018-04-22T19:28:21.595Z,12.97
2018-04-22T19:30:25.202Z,11.53
2018-04-22T19:32:28.781Z,9.93
2018-04-22T19:34:32.436Z,12.77
2018-04-22T19:36:36.009Z,12.70
2018-04-22T19:38:39.596Z,10.93
2018-04-22T19:40:44.785Z,12.33
2018-04-22T19:42:49.488Z,11.57
2018-04-22T19:44:53.836Z,12.90
2018-04-22T19:46:57.468Z,13.13
2018-04-22T19:49:01.059Z,11.50
2018-04-22T19:51:04.752Z,10.60
2018-04-22T19:53:08.395Z,11.63
2018-04-22T19:55:11.932Z,12.77
2018-04-22T19:57:15.614Z,13.13
2018-04-22T19:59:19.200Z,12.10
2018-04-22T20:01:23.687Z,10.83
2018-04-22T20:03:28.042Z,11.93
2018-04-22T20:05:32.380Z,13.40
2018-04-22T20:07:36.017Z,10.87
2018-04-22T20:09:40.296Z,12.00
2018-04-22T20:11:43.958Z,11.93
2018-04-22T20:13:47.516Z,10.97
2018-04-22T20:15:51.195Z,10.60
2018-04-22T20:17:54.761Z,10.87
2018-04-22T20:19:59.128Z,9.60
2018-04-22T20:22:02.760Z,10.87
2018-04-22T20:24:11.793Z,9.67
2018-04-22T20:26:16.366Z,9.37
2018-04-22T20:28:19.859Z,8.00
2018-04-22T20:30:23.387Z,9.07
2018-04-22T20:32:28.427Z,8.27
2018-04-22T20:34:31.996Z,8.30
2018-04-22T20:36:35.644Z,7.50
2018-04-22T20:38:40.013Z,9.10
2018-04-22T20:40:44.291Z,8.00
2018-04-22T20:42:48.885Z,8.10
2018-04-22T20:44:53.243Z,9.20
2018-04-22T20:46:58.827Z,7.30
2018-04-22T20:49:03.323Z,7.97
2018-04-22T20:51:08.623Z,8.80
2018-04-22T20:53:12.207Z,7.03
2018-04-22T20:55:15.854Z,7.90
2018-04-22T20:57:20.275Z,8.77
2018-04-22T20:59:23.828Z,9.23
2018-04-22T21:01:27.413Z,9.10
2018-04-22T21:03:31.036Z,7.03
2018-04-22T21:05:34.638Z,9.63
2018-04-22T21:07:38.261Z,9.80
2018-04-22T21:09:42.422Z,7.87
2018-04-22T21:11:46.002Z,6.87
2018-04-22T21:13:50.523Z,7.60
2018-04-22T21:15:54.815Z,8.07
2018-04-22T21:17:58.416Z,8.17
2018-04-22T21:20:01.949Z,9.87
2018-04-22T21:22:05.656Z,8.30
2018-04-22T21:24:09.209Z,8.70
2018-04-22T21:26:13.536Z,10.03
2018-04-22T21:28:17.224Z,10.13
2018-04-22T21:30:21.551Z,9.57
2018-04-22T21:32:25.878Z,10.00
2018-04-22T21:34:29.480Z,10.23
2018-04-22T21:36:33.015Z,7.57
2018-04-22T21:38:36.675Z,10.80
2018-04-22T21:40:40.348Z,12.00
2018-04-22T21:42:43.954Z,9.80
2018-04-22T21:44:47.583Z,9.20
2018-04-22T21:46:51.149Z,10.67
2018-04-22T21:48:55.469Z,8.23
2018-04-22T21:50:59.093Z,9.63
2018-04-22T21:53:02.642Z,7.77
2018-04-22T21:55:06.923Z,7.67
2018-04-22T21:57:10.587Z,7.40
2018-04-22T21:59:14.169Z,7.80
2018-04-22T22:01:17.718Z,7.43
2018-04-22T22:03:21.367Z,8.90
2018-04-22T22:05:24.898Z,9.13
2018-04-22T22:07:28.476Z,8.20
2018-04-22T22:09:32.004Z,8.27
2018-04-22T22:11:35.583Z,7.83
2018-04-22T22:13:39.656Z,7.63
2018-04-22T22:15:43.217Z,9.07
2018-04-22T22:17:46.787Z,8.97
2018-04-22T22:19:50.375Z,7.37
2018-04-22T22:21:53.885Z,6.17
2018-04-22T22:23:57.466Z,6.43
2018-04-22T22:26:01.095Z,6.97
2018-04-22T22:28:04.689Z,9.57
2018-04-22T22:30:08.275Z,8.70
2018-04-22T22:32:11.797Z,8.50
2018-04-22T22:34:16.173Z,9.80
2018-04-22T22:36:19.711Z,8.80
2018-04-22T22:38:24.047Z,9.10
2018-04-22T22:40:27.780Z,9.50
2018-04-22T22:42:31.332Z,8.10
2018-04-22T22:44:35.648Z,6.73
2018-04-22T22:46:40.465Z,8.27
2018-04-22T22:48:43.983Z,8.20
2018-04-22T22:50:47.542Z,8.47
2018-04-22T22:52:51.944Z,6.50
2018-04-22T22:54:55.524Z,6.80
2018-04-22T22:56:59.146Z,8.90
2018-04-22T22:59:02.811Z,8.20
2018-04-22T23:01:06.388Z,7.40
2018-04-22T23:03:09.973Z,8.13
2018-04-22T23:05:13.560Z,8.67
2018-04-22T23:07:17.179Z,11.20
2018-04-22T23:09:20.755Z,8.03
2018-04-22T23:11:24.382Z,7.20
2018-04-22T23:13:27.926Z,10.10
2018-04-22T23:15:31.482Z,10.73
2018-04-22T23:17:35.087Z,9.60
2018-04-22T23:19:38.630Z,8.57
2018-04-22T23:21:43.029Z,9.77
2018-04-22T23:23:46.621Z,8.07
2018-04-22T23:25:50.176Z,7.57
2018-04-22T23:27:53.779Z,11.93
2018-04-22T23:29:57.312Z,9.43
2018-04-22T23:32:01.667Z,11.63
2018-04-22T23:34:05.275Z,8.27
2018-04-22T23:36:08.847Z,10.00
2018-04-22T23:38:12.459Z,9.07
2018-04-22T23:40:16.008Z,8.87
2018-04-22T23:42:20.349Z,10.53
2018-04-22T23:44:23.952Z,9.13
2018-04-22T23:46:27.491Z,10.67
2018-04-22T23:48:31.048Z,8.60
2018-04-22T23:50:34.624Z,10.17
2018-04-22T23:52:38.985Z,11.00
2018-04-22T23:54:42.536Z,11.83
2018-04-22T23:56:46.865Z,12.50
2018-04-22T23:58:50.387Z,12.77
